createdAt,value
2022-08-31T00:01:32.449Z,99.90
2022-08-31T00:04:06.250Z,99.90
2022-08-31T00:06:39.921Z,99.90
2022-08-31T00:09:13.276Z,99.90
2022-08-31T00:11:46.891Z,99.90
2022-08-31T00:14:21.779Z,99.90
2022-08-31T00:16:55.244Z,99.90
2022-08-31T00:19:28.639Z,99.90
2022-08-31T00:22:02.199Z,99.90
2022-08-31T00:24:35.815Z,99.90
2022-08-31T00:27:09.283Z,99.90
2022-08-31T00:29:43.993Z,99.90
2022-08-31T00:32:17.588Z,99.90
2022-08-31T00:34:55.817Z,99.90
2022-08-31T00:37:30.125Z,99.90
2022-08-31T00:40:03.738Z,99.90
2022-08-31T00:42:37.363Z,99.90
2022-08-31T00:45:12.637Z,99.90
2022-08-31T00:47:46.269Z,99.90
2022-08-31T00:50:22.324Z,99.90
2022-08-31T00:53:02.320Z,99.90
2022-08-31T00:55:38.293Z,99.90
2022-08-31T00:58:14.304Z,99.90
2022-08-31T01:00:49.437Z,99.90
2022-08-31T01:03:23.721Z,99.90
2022-08-31T01:05:57.311Z,99.90
2022-08-31T01:08:31.165Z,99.90
2022-08-31T01:11:04.811Z,99.90
2022-08-31T01:13:39.054Z,99.90
2022-08-31T01:16:19.903Z,99.90
2022-08-31T01:18:55.213Z,99.90
2022-08-31T01:21:33.298Z,99.90
2022-08-31T01:24:10.361Z,99.90
2022-08-31T01:26:44.482Z,99.90
2022-08-31T01:29:29.721Z,99.90
2022-08-31T01:32:03.672Z,99.90
2022-08-31T01:34:37.465Z,99.90
2022-08-31T01:37:11.401Z,99.90
2022-08-31T01:39:49.813Z,99.90
2022-08-31T01:42:23.555Z,99.90
2022-08-31T01:45:07.919Z,99.90
2022-08-31T01:47:42.259Z,99.90
2022-08-31T01:50:15.757Z,99.90
2022-08-31T01:52:50.345Z,99.90
2022-08-31T01:55:25.182Z,99.90
2022-08-31T01:57:59.044Z,99.90
2022-08-31T02:01:32.760Z,99.90
2022-08-31T02:04:07.228Z,99.90
2022-08-31T02:06:43.411Z,99.90
2022-08-31T02:09:17.547Z,99.90
2022-08-31T02:11:52.991Z,99.90
2022-08-31T02:14:26.566Z,99.90
2022-08-31T02:17:00.040Z,99.90
2022-08-31T02:19:33.543Z,99.90
2022-08-31T02:22:08.008Z,99.90
2022-08-31T02:24:41.694Z,99.90
2022-08-31T02:27:16.462Z,99.90
2022-08-31T02:29:50.684Z,99.90
2022-08-31T02:32:25.501Z,99.90
2022-08-31T02:34:59.142Z,99.90
2022-08-31T02:37:32.599Z,99.90
2022-08-31T02:40:12.272Z,99.90
2022-08-31T02:42:52.755Z,99.90
2022-08-31T02:45:27.877Z,99.90
2022-08-31T02:48:09.693Z,99.90
2022-08-31T02:50:48.338Z,99.90
2022-08-31T02:53:24.641Z,99.90
2022-08-31T02:55:58.457Z,99.90
2022-08-31T02:58:33.207Z,99.90
2022-08-31T03:01:07.309Z,99.90
2022-08-31T03:03:40.881Z,99.90
2022-08-31T03:06:20.978Z,99.90
2022-08-31T03:08:54.364Z,99.90
2022-08-31T03:11:28.558Z,99.90
2022-08-31T03:14:03.307Z,99.90
2022-08-31T03:16:37.159Z,99.90
2022-08-31T03:19:11.006Z,99.90
2022-08-31T03:21:46.046Z,99.90
2022-08-31T03:24:21.615Z,99.90
2022-08-31T03:26:55.434Z,99.90
2022-08-31T03:29:30.443Z,99.90
2022-08-31T03:32:30.948Z,99.90
2022-08-31T03:35:05.178Z,99.90
2022-08-31T03:37:38.787Z,99.90
2022-08-31T03:40:12.731Z,99.90
2022-08-31T03:42:46.749Z,99.90
2022-08-31T03:45:21.813Z,99.90
2022-08-31T03:47:55.251Z,99.90
2022-08-31T03:50:31.448Z,99.90
2022-08-31T03:53:15.111Z,99.90
2022-08-31T03:55:50.125Z,99.90
2022-08-31T03:58:23.481Z,99.90
2022-08-31T04:00:58.612Z,99.90
2022-08-31T04:03:57.930Z,99.90
2022-08-31T04:06:51.597Z,99.90
2022-08-31T04:09:43.372Z,99.90
2022-08-31T04:12:37.022Z,99.90
2022-08-31T04:15:30.849Z,99.90
2022-08-31T04:18:24.279Z,99.90
2022-08-31T04:20:57.759Z,99.90
2022-08-31T04:23:31.199Z,99.90
2022-08-31T04:26:04.803Z,99.90
2022-08-31T04:28:38.764Z,99.90
2022-08-31T04:31:12.401Z,99.90
2022-08-31T04:33:49.329Z,99.90
2022-08-31T04:36:26.063Z,99.90
2022-08-31T04:39:03.411Z,99.90
2022-08-31T04:41:40.018Z,99.90
2022-08-31T04:44:19.653Z,99.90
2022-08-31T04:46:57.967Z,99.90
2022-08-31T04:49:32.894Z,99.90
2022-08-31T04:52:07.071Z,99.90
2022-08-31T04:54:41.135Z,99.90
2022-08-31T04:57:14.654Z,99.90
2022-08-31T04:59:48.109Z,99.90
2022-08-31T05:02:56.479Z,99.90
2022-08-31T05:05:31.880Z,99.90
2022-08-31T05:08:05.281Z,99.90
2022-08-31T05:10:40.736Z,99.90
2022-08-31T05:13:14.235Z,99.90
2022-08-31T05:15:47.799Z,99.90
2022-08-31T05:18:26.807Z,99.90
2022-08-31T05:21:11.697Z,99.90
2022-08-31T05:23:47.648Z,99.90
2022-08-31T05:26:26.559Z,99.90
2022-08-31T05:29:01.849Z,99.90
2022-08-31T05:31:37.516Z,99.90
2022-08-31T05:34:14.992Z,99.90
2022-08-31T05:36:53.730Z,99.90
2022-08-31T05:39:27.228Z,99.90
2022-08-31T05:42:00.984Z,99.90
2022-08-31T05:44:35.688Z,99.90
2022-08-31T05:47:10.604Z,99.90
2022-08-31T05:49:45.113Z,99.90
2022-08-31T05:52:25.046Z,99.90
2022-08-31T05:55:00.363Z,99.90
2022-08-31T05:57:33.849Z,99.90
2022-08-31T06:00:10.675Z,99.90
2022-08-31T06:02:53.831Z,99.90
2022-08-31T06:05:27.500Z,99.90
2022-08-31T06:08:02.386Z,99.90
2022-08-31T06:10:36.683Z,99.90
2022-08-31T06:13:10.653Z,99.90
2022-08-31T06:15:44.409Z,99.90
2022-08-31T06:18:21.012Z,99.90
2022-08-31T06:21:03.287Z,99.90
2022-08-31T06:23:38.504Z,99.90
2022-08-31T06:26:15.989Z,99.90
2022-08-31T06:28:52.686Z,99.90
2022-08-31T06:31:29.569Z,99.90
2022-08-31T06:34:04.929Z,99.90
2022-08-31T06:36:57.170Z,99.90
2022-08-31T06:39:47.820Z,99.90
2022-08-31T06:42:52.128Z,99.90
2022-08-31T06:45:58.685Z,99.90
2022-08-31T06:48:55.262Z,99.90
2022-08-31T06:51:29.318Z,99.90
2022-08-31T06:54:21.416Z,99.90
2022-08-31T06:57:28.261Z,99.90
2022-08-31T07:00:24.649Z,99.90
2022-08-31T07:03:24.101Z,99.90
2022-08-31T07:05:58.712Z,99.90
2022-08-31T07:08:32.473Z,99.90
2022-08-31T07:11:12.910Z,99.90
2022-08-31T07:13:48.608Z,99.90
2022-08-31T07:16:24.889Z,99.90
2022-08-31T07:19:01.197Z,99.90
2022-08-31T07:21:36.644Z,99.90
2022-08-31T07:24:11.385Z,99.90
2022-08-31T07:26:47.271Z,99.90
2022-08-31T07:29:25.167Z,99.90
2022-08-31T07:31:59.746Z,99.90
2022-08-31T07:34:34.037Z,99.90
2022-08-31T07:38:04.050Z,99.90
2022-08-31T07:40:58.612Z,99.90
2022-08-31T07:43:32.173Z,99.90
2022-08-31T07:46:08.716Z,99.90
2022-08-31T07:48:42.666Z,99.90
2022-08-31T07:51:30.501Z,99.90
2022-08-31T07:54:27.312Z,99.90
2022-08-31T07:57:07.681Z,99.90
2022-08-31T07:59:42.971Z,99.90
2022-08-31T08:02:18.803Z,99.90
2022-08-31T08:04:53.452Z,99.90
2022-08-31T08:07:54.651Z,99.90
2022-08-31T08:10:54.762Z,99.90
2022-08-31T08:13:46.718Z,99.90
2022-08-31T08:16:39.514Z,99.90
2022-08-31T08:19:27.350Z,99.90
2022-08-31T08:22:02.267Z,99.90
2022-08-31T08:24:47.517Z,99.90
2022-08-31T08:27:38.269Z,99.90
2022-08-31T08:30:30.609Z,99.90
2022-08-31T08:33:04.124Z,99.90
2022-08-31T08:35:42.112Z,99.90
2022-08-31T08:38:16.681Z,99.90
2022-08-31T08:40:51.556Z,99.90
2022-08-31T08:43:31.182Z,99.90
2022-08-31T08:46:31.258Z,99.90
2022-08-31T08:49:15.073Z,99.90
2022-08-31T08:51:54.856Z,99.90
2022-08-31T08:54:33.104Z,99.90
2022-08-31T08:57:14.352Z,99.90
2022-08-31T08:59:51.184Z,99.90
2022-08-31T09:02:32.658Z,99.90
2022-08-31T09:05:16.872Z,99.90
2022-08-31T09:08:18.724Z,99.90
2022-08-31T09:11:06.663Z,99.90
2022-08-31T09:13:49.045Z,99.90
2022-08-31T09:16:30.224Z,99.90
2022-08-31T09:19:07.298Z,99.90
2022-08-31T09:21:44.021Z,99.90
2022-08-31T09:24:21.261Z,99.90
2022-08-31T09:27:47.408Z,99.90
2022-08-31T09:30:39.531Z,99.90
2022-08-31T09:33:19.271Z,99.90
2022-08-31T09:35:56.889Z,99.90
2022-08-31T09:38:32.495Z,99.90
2022-08-31T09:41:22.067Z,99.90
2022-08-31T09:44:17.557Z,99.90
2022-08-31T09:46:56.716Z,99.90
2022-08-31T09:49:32.105Z,99.90
2022-08-31T09:52:43.328Z,99.90
2022-08-31T09:55:21.448Z,99.90
2022-08-31T09:57:59.129Z,99.90
2022-08-31T10:00:38.983Z,99.90
2022-08-31T10:03:20.955Z,99.90
2022-08-31T10:05:57.571Z,99.90
2022-08-31T10:08:43.184Z,99.90
2022-08-31T10:11:23.246Z,99.90
2022-08-31T10:14:04.604Z,99.90
2022-08-31T10:16:44.178Z,99.90
2022-08-31T10:19:21.376Z,99.90
2022-08-31T10:21:57.075Z,99.90
2022-08-31T10:24:43.101Z,99.90
2022-08-31T10:27:20.272Z,99.90
2022-08-31T10:30:01.036Z,99.90
2022-08-31T10:32:40.178Z,99.90
2022-08-31T10:35:18.042Z,99.90
2022-08-31T10:37:59.307Z,99.90
2022-08-31T10:40:39.945Z,99.90
2022-08-31T10:43:17.089Z,99.90
2022-08-31T10:45:54.284Z,99.90
2022-08-31T10:48:29.027Z,99.90
2022-08-31T10:51:14.245Z,99.90
2022-08-31T10:54:06.920Z,99.90
2022-08-31T10:56:50.759Z,99.90
2022-08-31T10:59:34.281Z,99.90
2022-08-31T11:02:51.005Z,99.90
2022-08-31T11:05:35.352Z,99.90
2022-08-31T11:08:31.318Z,99.90
2022-08-31T11:11:09.021Z,99.90
2022-08-31T11:14:04.492Z,99.90
2022-08-31T11:16:57.191Z,99.90
2022-08-31T11:19:51.308Z,99.90
2022-08-31T11:22:52.288Z,99.90
2022-08-31T11:25:50.758Z,99.90
2022-08-31T11:28:32.781Z,99.90
2022-08-31T11:31:20.291Z,99.90
2022-08-31T11:34:15.010Z,99.90
2022-08-31T11:36:55.977Z,99.90
2022-08-31T11:39:49.478Z,99.90
2022-08-31T11:43:01.208Z,99.90
2022-08-31T11:45:37.604Z,99.90
2022-08-31T11:48:51.388Z,99.90
2022-08-31T11:51:29.538Z,99.90
2022-08-31T11:54:07.219Z,99.90
2022-08-31T11:56:42.391Z,99.90
2022-08-31T11:59:26.793Z,99.90
2022-08-31T12:02:03.941Z,99.90
2022-08-31T12:05:00.538Z,99.90
2022-08-31T12:07:42.245Z,99.90
2022-08-31T12:10:35.454Z,99.90
2022-08-31T12:13:31.702Z,99.90
2022-08-31T12:16:37.430Z,99.90
2022-08-31T12:19:51.765Z,99.90
2022-08-31T12:23:24.434Z,99.90
2022-08-31T12:26:16.769Z,99.90
2022-08-31T12:29:20.000Z,99.90
2022-08-31T12:32:17.927Z,99.90
2022-08-31T12:34:57.765Z,99.90
2022-08-31T12:37:32.910Z,99.90
2022-08-31T12:40:14.970Z,99.90
2022-08-31T12:43:02.630Z,99.70
2022-08-31T12:46:01.752Z,99.90
2022-08-31T12:48:50.510Z,99.90
2022-08-31T12:51:39.856Z,98.10
2022-08-31T12:54:51.845Z,98.60
2022-08-31T12:57:40.315Z,98.50
2022-08-31T13:00:21.970Z,99.20
2022-08-31T13:02:58.912Z,98.70
2022-08-31T13:05:35.425Z,99.30
2022-08-31T13:08:21.076Z,99.90
2022-08-31T13:10:54.829Z,99.90
2022-08-31T13:13:30.372Z,99.90
2022-08-31T13:16:08.039Z,99.90
2022-08-31T13:18:41.552Z,99.90
2022-08-31T13:21:22.034Z,99.90
2022-08-31T13:24:07.337Z,99.90
2022-08-31T13:26:40.950Z,99.90
2022-08-31T13:29:18.720Z,99.90
2022-08-31T13:31:54.176Z,99.90
2022-08-31T13:34:27.649Z,98.80
2022-08-31T13:37:01.116Z,99.00
2022-08-31T13:39:36.645Z,99.60
2022-08-31T13:42:12.207Z,98.70
2022-08-31T13:44:46.231Z,98.50
2022-08-31T13:47:25.378Z,98.00
2022-08-31T13:50:10.309Z,97.40
2022-08-31T13:53:09.597Z,95.10
2022-08-31T13:55:46.556Z,96.30
2022-08-31T13:58:30.026Z,95.50
2022-08-31T14:01:23.341Z,94.20
2022-08-31T14:04:00.217Z,94.20
2022-08-31T14:06:38.070Z,95.00
2022-08-31T14:09:17.204Z,94.40
2022-08-31T14:11:53.450Z,93.90
2022-08-31T14:14:29.906Z,94.10
2022-08-31T14:17:03.641Z,94.00
2022-08-31T14:19:39.274Z,94.30
2022-08-31T14:22:17.794Z,94.20
2022-08-31T14:24:51.176Z,93.90
2022-08-31T14:27:24.708Z,93.90
2022-08-31T14:29:58.485Z,94.10
2022-08-31T14:32:33.359Z,93.90
2022-08-31T14:35:12.053Z,93.90
2022-08-31T14:37:45.856Z,94.40
2022-08-31T14:40:19.318Z,94.30
2022-08-31T14:42:52.782Z,94.60
2022-08-31T14:45:26.200Z,95.20
2022-08-31T14:47:59.938Z,95.50
2022-08-31T14:50:34.829Z,95.80
2022-08-31T14:53:12.053Z,95.90
2022-08-31T14:55:47.034Z,96.90
2022-08-31T14:58:28.178Z,96.80
2022-08-31T15:01:04.853Z,97.40
2022-08-31T15:03:40.288Z,97.80
2022-08-31T15:06:15.170Z,97.70
2022-08-31T15:08:49.001Z,97.30
2022-08-31T15:11:22.853Z,97.60
2022-08-31T15:13:56.231Z,97.80
2022-08-31T15:16:31.385Z,98.10
2022-08-31T15:19:13.151Z,98.20
2022-08-31T15:21:58.681Z,98.30
2022-08-31T15:24:37.783Z,97.90
2022-08-31T15:27:15.163Z,98.20
2022-08-31T15:29:59.263Z,98.40
2022-08-31T15:32:32.744Z,99.00
2022-08-31T15:35:07.040Z,99.70
2022-08-31T15:37:44.835Z,99.30
2022-08-31T15:40:18.410Z,99.20
2022-08-31T15:42:54.026Z,99.90
2022-08-31T15:45:30.770Z,99.90
2022-08-31T15:48:22.525Z,99.90
2022-08-31T15:51:00.429Z,99.90
2022-08-31T15:53:35.560Z,99.90
2022-08-31T15:56:09.490Z,99.90
2022-08-31T15:58:43.023Z,99.90
2022-08-31T16:01:17.138Z,99.90
2022-08-31T16:03:52.856Z,99.90
2022-08-31T16:06:31.267Z,99.90
2022-08-31T16:09:06.175Z,99.90
2022-08-31T16:11:40.186Z,99.90
2022-08-31T16:14:15.541Z,99.90
2022-08-31T16:16:51.061Z,99.90
2022-08-31T16:19:35.027Z,99.90
2022-08-31T16:22:09.478Z,99.90
2022-08-31T16:24:45.420Z,99.90
2022-08-31T16:27:20.486Z,99.90
2022-08-31T16:29:53.903Z,99.90
2022-08-31T16:32:27.713Z,99.90
2022-08-31T16:35:01.279Z,99.90
2022-08-31T16:37:34.929Z,99.90
2022-08-31T16:40:11.535Z,99.90
2022-08-31T16:42:45.144Z,99.90
2022-08-31T16:45:18.699Z,99.90
2022-08-31T16:48:12.789Z,99.90
2022-08-31T16:50:47.185Z,99.90
2022-08-31T16:53:20.679Z,99.90
2022-08-31T16:55:55.532Z,99.90
2022-08-31T17:01:27.900Z,99.90
2022-08-31T17:04:04.754Z,99.90
2022-08-31T17:06:40.451Z,99.90
2022-08-31T17:09:18.894Z,99.90
2022-08-31T17:11:57.502Z,99.90
2022-08-31T17:14:35.902Z,99.90
2022-08-31T17:17:09.389Z,99.90
2022-08-31T17:19:44.649Z,99.90
2022-08-31T17:22:25.550Z,99.90
2022-08-31T17:25:04.551Z,99.90
2022-08-31T17:27:40.376Z,99.90
2022-08-31T17:30:14.145Z,99.90
2022-08-31T17:32:48.198Z,99.90
2022-08-31T17:35:21.652Z,99.90
2022-08-31T17:37:55.610Z,99.90
2022-08-31T17:40:29.173Z,99.90
2022-08-31T17:43:04.336Z,99.90
2022-08-31T17:45:37.963Z,99.90
2022-08-31T17:48:11.389Z,99.90
2022-08-31T17:50:46.156Z,99.90
2022-08-31T17:53:19.600Z,99.90
2022-08-31T17:55:56.386Z,99.90
2022-08-31T17:58:31.216Z,99.90
2022-08-31T18:01:07.226Z,99.90
2022-08-31T18:03:40.823Z,99.90
2022-08-31T18:06:17.826Z,99.90
2022-08-31T18:08:51.670Z,99.90
2022-08-31T18:11:26.081Z,99.90
2022-08-31T18:14:00.969Z,99.90
2022-08-31T18:16:34.507Z,99.90
2022-08-31T18:19:08.076Z,99.90
2022-08-31T18:21:42.456Z,99.90
2022-08-31T18:24:16.619Z,99.90
2022-08-31T18:26:51.970Z,99.90
2022-08-31T18:29:26.824Z,99.90
2022-08-31T18:32:03.248Z,99.90
2022-08-31T18:34:40.101Z,99.90
2022-08-31T18:37:15.052Z,99.90
2022-08-31T18:40:08.340Z,99.90
2022-08-31T18:42:59.656Z,99.90
2022-08-31T18:45:39.420Z,99.90
2022-08-31T18:48:24.908Z,99.90
2022-08-31T18:50:59.057Z,99.90
2022-08-31T18:53:34.677Z,99.90
2022-08-31T18:56:11.764Z,99.90
2022-08-31T18:58:45.289Z,99.90
2022-08-31T19:01:20.176Z,99.90
2022-08-31T19:03:54.730Z,99.90
2022-08-31T19:06:29.316Z,99.90
2022-08-31T19:09:03.156Z,99.90
2022-08-31T19:11:38.365Z,99.90
2022-08-31T19:14:12.551Z,99.90
2022-08-31T19:16:49.623Z,99.90
2022-08-31T19:19:29.660Z,99.90
2022-08-31T19:22:03.225Z,99.90
2022-08-31T19:24:40.878Z,99.90
2022-08-31T19:27:15.154Z,99.90
2022-08-31T19:29:48.989Z,99.90
2022-08-31T19:32:23.889Z,99.90
2022-08-31T19:34:58.328Z,99.90
2022-08-31T19:37:31.992Z,99.90
2022-08-31T19:40:06.719Z,99.90
2022-08-31T19:42:41.255Z,99.90
2022-08-31T19:45:47.734Z,99.90
2022-08-31T19:48:23.894Z,99.90
2022-08-31T19:50:57.512Z,99.90
2022-08-31T19:53:30.898Z,99.90
2022-08-31T19:56:06.181Z,99.90
2022-08-31T19:58:40.051Z,99.90
2022-08-31T20:01:13.530Z,99.90
2022-08-31T20:03:49.223Z,99.90
2022-08-31T20:06:25.322Z,99.90
2022-08-31T20:08:59.308Z,99.90
2022-08-31T20:11:35.273Z,99.90
2022-08-31T20:14:09.166Z,99.90
2022-08-31T20:16:43.347Z,99.90
2022-08-31T20:19:24.570Z,99.90
2022-08-31T20:22:03.603Z,99.90
2022-08-31T20:24:42.095Z,99.90
2022-08-31T20:27:18.599Z,99.90
2022-08-31T20:29:52.428Z,99.90
2022-08-31T20:32:25.884Z,99.90
2022-08-31T20:35:02.257Z,99.90
2022-08-31T20:37:35.765Z,99.90
2022-08-31T20:40:16.370Z,99.90
2022-08-31T20:42:51.526Z,99.90
2022-08-31T20:45:25.037Z,99.90
2022-08-31T20:48:15.975Z,99.90
2022-08-31T20:50:55.966Z,99.90
2022-08-31T20:53:43.391Z,99.90
2022-08-31T20:56:18.949Z,99.90
2022-08-31T20:58:52.338Z,99.90
2022-08-31T21:01:26.044Z,99.90
2022-08-31T21:03:59.528Z,99.90
2022-08-31T21:06:36.781Z,99.90
2022-08-31T21:09:10.208Z,99.90
2022-08-31T21:11:43.808Z,99.90
2022-08-31T21:14:20.051Z,99.90
2022-08-31T21:16:53.917Z,99.90
2022-08-31T21:19:27.319Z,99.90
2022-08-31T21:22:05.280Z,99.90
2022-08-31T21:24:42.049Z,99.90
2022-08-31T21:27:18.904Z,99.90
2022-08-31T21:29:52.480Z,99.90
2022-08-31T21:32:25.915Z,99.90
2022-08-31T21:34:59.419Z,99.90
2022-08-31T21:37:34.226Z,99.90
2022-08-31T21:40:08.897Z,99.90
2022-08-31T21:42:42.274Z,99.90
2022-08-31T21:45:15.849Z,99.90
2022-08-31T21:47:49.209Z,99.90
2022-08-31T21:50:23.002Z,99.90
2022-08-31T21:53:00.409Z,99.90
2022-08-31T21:55:37.604Z,99.90
2022-08-31T21:58:11.012Z,99.90
2022-08-31T22:00:44.608Z,99.90
2022-08-31T22:03:20.336Z,99.90
2022-08-31T22:05:54.475Z,99.90
2022-08-31T22:08:29.549Z,99.90
2022-08-31T22:11:08.333Z,99.90
2022-08-31T22:13:43.939Z,99.90
2022-08-31T22:16:20.066Z,99.90
2022-08-31T22:19:01.343Z,99.90
2022-08-31T22:21:36.939Z,99.90
2022-08-31T22:24:13.378Z,99.90
2022-08-31T22:27:03.659Z,99.90
2022-08-31T22:29:38.358Z,99.90
2022-08-31T22:32:15.248Z,99.90
2022-08-31T22:34:48.671Z,99.90
2022-08-31T22:37:22.284Z,99.90
2022-08-31T22:39:57.115Z,99.90
2022-08-31T22:42:30.984Z,99.90
2022-08-31T22:45:04.926Z,99.90
2022-08-31T22:47:49.530Z,99.90
2022-08-31T22:50:23.776Z,99.90
2022-08-31T22:52:57.174Z,99.90
2022-08-31T22:55:32.750Z,99.90
2022-08-31T22:58:06.381Z,99.90
2022-08-31T23:00:39.974Z,99.90
2022-08-31T23:03:14.932Z,99.90
2022-08-31T23:05:48.387Z,99.90
2022-08-31T23:08:22.601Z,99.90
2022-08-31T23:10:57.601Z,99.90
2022-08-31T23:13:51.986Z,99.90
2022-08-31T23:16:27.813Z,99.90
2022-08-31T23:19:03.512Z,99.90
2022-08-31T23:21:37.042Z,99.90
2022-08-31T23:24:11.091Z,99.90
2022-08-31T23:26:47.482Z,99.90
2022-08-31T23:29:21.791Z,99.90
2022-08-31T23:31:57.454Z,99.90
2022-08-31T23:34:30.972Z,99.90
2022-08-31T23:37:08.079Z,99.90
2022-08-31T23:39:45.106Z,99.90
2022-08-31T23:42:21.078Z,99.90
2022-08-31T23:44:55.420Z,99.90
2022-08-31T23:47:31.318Z,99.90
2022-08-31T23:50:08.106Z,99.90
2022-08-31T23:52:43.975Z,99.90
2022-08-31T23:55:18.116Z,99.90
2022-08-31T23:57:53.141Z,99.90
